Time;durP1;ratioP1;P1;durP2;ratioP2;P2;SDS_P1;SDS_P2;PMS_P1;PMS_P2;Temp;Humidity;BMP_temperature;BMP_pressure;BME280_temperature;BME280_humidity;BME280_pressure;Samples;Min_cycle;Max_cycle;Signal;HPM_P1;HPM_P2
2024/04/15 05:42:04;;;;;;;3.80;2.17;;;;;;;;;;10626385;27;20405;-84
2024/04/15 05:47:06;;;;;;;3.97;1.65;;;;;;;;;;10593940;28;20032;-83
2024/04/15 07:06:16;;;;;;;3.80;1.63;;;;;;;;;;10670531;27;20049;-84
2024/04/15 07:11:25;;;;;;;4.85;2.15;;;;;;;;;;10650754;27;20126;-81
2024/04/15 07:16:41;;;;;;;9.75;3.33;;;;;;;;;;10637102;27;20069;-84
2024/04/15 07:21:45;;;;;;;5.13;2.60;;;;;;;;;;10650504;27;20035;-83
2024/04/15 07:26:47;;;;;;;6.13;2.90;;;;;;;;;;10632710;27;20039;-82
2024/04/15 07:31:48;;;;;;;4.80;2.80;;;;;;;;;;10662337;27;20031;-82
2024/04/15 07:36:50;;;;;;;5.25;2.60;;;;;;;;;;10643500;27;20043;-82
2024/04/15 07:41:53;;;;;;;8.32;2.42;;;;;;;;;;10632901;27;20031;-82
2024/04/15 07:46:54;;;;;;;7.65;2.55;;;;;;;;;;10630160;27;20153;-82
2024/04/15 07:51:56;;;;;;;6.47;2.65;;;;;;;;;;10630453;27;20037;-82
2024/04/15 07:56:57;;;;;;;8.43;2.97;;;;;;;;;;10648466;27;20087;-82
2024/04/15 08:01:59;;;;;;;8.52;2.95;;;;;;;;;;10628673;27;20114;-82
2024/04/15 08:07:00;;;;;;;8.77;3.00;;;;;;;;;;10615191;27;20046;-81
2024/04/15 08:12:01;;;;;;;5.85;2.78;;;;;;;;;;10615664;27;20035;-82
2024/04/15 08:17:02;;;;;;;5.80;3.05;;;;;;;;;;10649636;27;20440;-81
2024/04/15 08:22:04;;;;;;;6.70;3.60;;;;;;;;;;10628406;27;20497;-81
2024/04/15 08:27:05;;;;;;;6.80;2.92;;;;;;;;;;10629813;27;20042;-82
2024/04/15 08:32:06;;;;;;;5.63;3.03;;;;;;;;;;10630617;27;20043;-82
2024/04/15 08:37:07;;;;;;;4.72;2.50;;;;;;;;;;10645223;27;20371;-82
2024/04/15 08:42:15;;;;;;;4.43;2.00;;;;;;;;;;10626693;27;20046;-83
2024/04/15 08:47:23;;;;;;;5.78;2.72;;;;;;;;;;10622771;27;20035;-83
2024/04/15 08:52:24;;;;;;;3.47;1.75;;;;;;;;;;10622290;27;20084;-82
2024/04/15 08:57:28;;;;;;;3.47;1.90;;;;;;;;;;10644839;27;20031;-82
2024/04/15 09:02:31;;;;;;;4.50;1.90;;;;;;;;;;10626987;27;20043;-83
2024/04/15 09:07:32;;;;;;;4.97;2.05;;;;;;;;;;10644731;27;20441;-83
2024/04/15 09:12:36;;;;;;;3.35;1.67;;;;;;;;;;10644352;27;20046;-82
2024/04/15 09:17:38;;;;;;;4.07;1.95;;;;;;;;;;10631454;27;20062;-82
2024/04/15 09:22:39;;;;;;;4.93;2.10;;;;;;;;;;10621434;27;20121;-82
2024/04/15 09:27:40;;;;;;;4.80;1.85;;;;;;;;;;10623090;27;20112;-82
2024/04/15 09:32:42;;;;;;;3.53;1.70;;;;;;;;;;10623785;27;20070;-82
2024/04/15 09:37:43;;;;;;;4.55;1.98;;;;;;;;;;10624015;28;20037;-82
2024/04/15 09:42:44;;;;;;;4.68;2.20;;;;;;;;;;10623821;28;20051;-82
2024/04/15 09:47:46;;;;;;;4.20;1.90;;;;;;;;;;10623768;28;20138;-82
2024/04/15 09:52:50;;;;;;;5.88;2.10;;;;;;;;;;10626031;28;20027;-84
2024/04/15 09:57:53;;;;;;;4.25;2.88;;;;;;;;;;10627917;28;20034;-81
2024/04/15 10:03:00;;;;;;;3.45;1.80;;;;;;;;;;10622024;28;20432;-82
2024/04/15 10:08:01;;;;;;;3.97;2.20;;;;;;;;;;10620851;28;20031;-83
2024/04/15 10:13:04;;;;;;;5.07;2.15;;;;;;;;;;10621533;28;20066;-82
2024/04/15 10:18:09;;;;;;;9.73;6.15;;;;;;;;;;10617203;28;20035;-82
2024/04/15 10:23:18;;;;;;;4.38;2.00;;;;;;;;;;10635902;27;20107;-82
2024/04/15 10:28:20;;;;;;;7.07;2.60;;;;;;;;;;10644939;27;20042;-82
2024/04/15 10:33:21;;;;;;;3.67;1.80;;;;;;;;;;10652173;27;20039;-81
2024/04/15 10:38:26;;;;;;;3.83;1.50;;;;;;;;;;10652501;27;20046;-82
2024/04/15 10:43:27;;;;;;;5.65;2.60;;;;;;;;;;10622752;27;20054;-82
2024/04/15 10:48:29;;;;;;;6.07;2.22;;;;;;;;;;10620593;27;20038;-81
2024/04/15 10:53:30;;;;;;;4.00;1.98;;;;;;;;;;10617140;27;20034;-80
2024/04/15 10:58:31;;;;;;;5.72;1.70;;;;;;;;;;10632110;27;20051;-80
2024/04/15 11:03:32;;;;;;;3.95;1.50;;;;;;;;;;10661854;27;20047;-81
2024/04/15 11:08:33;;;;;;;6.22;1.90;;;;;;;;;;10640070;27;20039;-82
2024/04/15 11:13:34;;;;;;;3.40;1.58;;;;;;;;;;10631924;27;20031;-81
2024/04/15 11:18:35;;;;;;;4.57;1.80;;;;;;;;;;10628190;27;20081;-82
2024/04/15 11:23:37;;;;;;;5.65;1.90;;;;;;;;;;10629562;27;20059;-82
2024/04/15 11:28:39;;;;;;;5.25;1.65;;;;;;;;;;10623834;27;20031;-81
2024/04/15 11:33:40;;;;;;;5.38;2.13;;;;;;;;;;10639193;27;20035;-83
2024/04/15 11:38:41;;;;;;;6.45;2.10;;;;;;;;;;10658358;27;20027;-82
2024/04/15 11:43:42;;;;;;;7.18;2.00;;;;;;;;;;10651836;27;20082;-82
2024/04/15 11:48:44;;;;;;;4.00;1.90;;;;;;;;;;10648501;27;20435;-83
2024/04/15 13:25:01;;;;;;;2.67;1.23;;;;;;;;;;10605392;28;20040;-84
2024/04/15 17:55:32;;;;;;;4.65;1.98;;;;;;;;;;10608726;22;20048;-78
2024/04/15 18:00:33;;;;;;;3.78;1.95;;;;;;;;;;10554047;28;20044;-78
2024/04/15 18:05:34;;;;;;;;;;;;;;;;;;10546515;28;20137;-78
2024/04/15 18:10:35;;;;;;;3.13;1.67;;;;;;;;;;10546198;28;19908;-78
2024/04/15 18:15:36;;;;;;;;;;;;;;;;;;10543998;28;20039;-78
2024/04/15 18:20:38;;;;;;;2.35;1.27;;;;;;;;;;10546008;28;19915;-78
2024/04/15 18:25:39;;;;;;;4.15;1.50;;;;;;;;;;10544654;28;20028;-78
2024/04/15 18:30:40;;;;;;;2.72;1.25;;;;;;;;;;10545077;28;20047;-78
2024/04/15 18:35:41;;;;;;;4.90;1.25;;;;;;;;;;10549340;28;20483;-78
2024/04/15 18:40:42;;;;;;;2.63;1.13;;;;;;;;;;10548148;28;20118;-78
2024/04/15 18:45:44;;;;;;;3.38;1.23;;;;;;;;;;10551158;28;20063;-78
2024/04/15 18:50:45;;;;;;;3.47;0.95;;;;;;;;;;10555504;28;20039;-78
2024/04/15 18:55:46;;;;;;;2.67;1.15;;;;;;;;;;10553638;28;20522;-78
2024/04/15 19:00:47;;;;;;;;;;;;;;;;;;10555513;28;20036;-77
2024/04/15 19:05:48;;;;;;;1.63;1.00;;;;;;;;;;10553369;28;19904;-77
